createdAt,value
2018-02-06T00:00:14.424Z,45.50
2018-02-06T00:02:41.956Z,45.20
2018-02-06T00:05:09.547Z,45.42
2018-02-06T00:07:37.082Z,46.70
2018-02-06T00:10:04.619Z,47.15
2018-02-06T00:12:32.876Z,40.67
2018-02-06T00:15:00.425Z,40.10
2018-02-06T00:17:28.728Z,43.53
2018-02-06T00:19:56.300Z,38.90
2018-02-06T00:25:17.259Z,38.87
2018-02-06T00:27:45.379Z,42.23
2018-02-06T00:30:25.498Z,42.17
2018-02-06T00:41:08.075Z,41.83
2018-02-06T00:43:36.379Z,42.33
2018-02-06T00:46:03.915Z,46.93
2018-02-06T00:48:32.866Z,42.28
2018-02-06T00:51:00.403Z,44.07
2018-02-06T00:53:27.963Z,40.00
2018-02-06T00:55:55.527Z,41.50
2018-02-06T00:58:23.075Z,50.83
2018-02-06T01:00:50.633Z,53.20
2018-02-06T01:03:18.205Z,44.97
2018-02-06T01:05:45.749Z,37.73
2018-02-06T01:08:25.823Z,43.60
2018-02-06T01:15:49.279Z,49.00
2018-02-06T01:18:16.826Z,39.17
2018-02-06T01:20:44.415Z,49.27
2018-02-06T01:23:11.995Z,47.43
2018-02-06T01:25:39.579Z,42.40
2018-02-06T01:28:07.116Z,45.80
2018-02-06T01:30:35.006Z,38.83
2018-02-06T01:33:02.552Z,50.60
2018-02-06T01:35:30.086Z,45.73
2018-02-06T01:37:57.658Z,46.47
2018-02-06T01:40:25.202Z,44.33
2018-02-06T01:42:52.740Z,47.80
2018-02-06T01:45:21.070Z,45.65
2018-02-06T01:47:48.671Z,50.40
2018-02-06T01:50:16.504Z,45.72
2018-02-06T01:52:44.295Z,42.43
2018-02-06T01:55:11.891Z,45.30
2018-02-06T01:57:39.426Z,47.80
2018-02-06T02:00:07.020Z,47.40
2018-02-06T02:02:34.563Z,45.80
2018-02-06T02:05:02.868Z,44.80
2018-02-06T02:07:30.451Z,46.17
2018-02-06T02:09:57.995Z,53.90
2018-02-06T02:12:25.556Z,50.67
2018-02-06T02:14:53.430Z,49.67
2018-02-06T02:17:21.623Z,46.43
2018-02-06T02:19:49.196Z,54.30
2018-02-06T02:22:16.758Z,45.63
2018-02-06T02:24:44.341Z,46.50
2018-02-06T02:27:11.883Z,44.53
2018-02-06T02:29:39.471Z,51.10
2018-02-06T02:32:07.028Z,49.13
2018-02-06T02:34:34.563Z,45.23
2018-02-06T02:37:03.050Z,40.97
2018-02-06T02:39:30.595Z,47.43
2018-02-06T04:40:44.043Z,51.03
2018-02-06T04:43:11.592Z,53.65
2018-02-06T04:45:39.135Z,49.17
2018-02-06T04:48:07.203Z,51.10
2018-02-06T04:50:34.743Z,50.83
2018-02-06T04:53:02.288Z,57.73
2018-02-06T04:55:29.891Z,57.50
2018-02-06T04:57:57.484Z,50.37
2018-02-06T05:00:25.018Z,55.90
2018-02-06T05:02:52.609Z,53.20
2018-02-06T05:05:20.923Z,61.92
2018-02-06T05:07:48.471Z,53.35
2018-02-06T05:10:17.106Z,56.80
2018-02-06T05:12:44.650Z,56.13
2018-02-06T05:15:12.191Z,52.77
2018-02-06T05:17:39.763Z,61.07
2018-02-06T05:20:07.367Z,60.30
2018-02-06T05:22:35.911Z,52.80
2018-02-06T05:25:03.519Z,58.90
2018-02-06T05:27:31.141Z,63.13
2018-02-06T05:29:58.687Z,65.00
2018-02-06T05:32:27.077Z,59.80
2018-02-06T05:34:54.703Z,57.73
2018-02-06T05:37:22.247Z,58.43
2018-02-06T05:39:49.827Z,64.43
2018-02-06T05:42:17.383Z,52.63
2018-02-06T05:44:44.927Z,59.00
2018-02-06T05:47:12.543Z,58.87
2018-02-06T05:49:40.090Z,54.70
2018-02-06T05:52:07.631Z,53.00
2018-02-06T05:54:35.263Z,61.77
2018-02-06T05:57:02.804Z,53.60
2018-02-06T05:59:30.399Z,55.60
2018-02-06T06:01:57.987Z,55.53
2018-02-06T06:04:25.529Z,54.43
2018-02-06T06:06:53.080Z,55.53
2018-02-06T06:09:20.713Z,58.17
2018-02-06T06:11:49.071Z,55.43
2018-02-06T06:14:16.630Z,61.80
2018-02-06T06:16:44.528Z,72.83
2018-02-06T06:19:12.072Z,58.47
2018-02-06T06:21:39.934Z,56.70
2018-02-06T06:24:07.572Z,60.85
2018-02-06T06:26:35.114Z,58.77
2018-02-06T06:29:02.686Z,59.50
2018-02-06T06:31:30.287Z,60.12
2018-02-06T06:33:59.380Z,63.73
2018-02-06T06:36:26.931Z,60.03
2018-02-06T06:38:54.953Z,67.93
2018-02-06T06:41:22.496Z,59.77
2018-02-06T06:43:50.034Z,61.20
2018-02-06T06:46:18.374Z,62.40
2018-02-06T06:48:45.911Z,54.30
2018-02-06T06:51:15.524Z,61.35
2018-02-06T06:53:43.092Z,59.17
2018-02-06T06:56:10.642Z,53.00
2018-02-06T06:58:38.186Z,60.27
2018-02-06T07:01:06.203Z,54.70
2018-02-06T07:03:33.748Z,62.70
2018-02-06T07:06:01.292Z,57.87
2018-02-06T07:08:28.869Z,55.03
2018-02-06T07:10:56.419Z,62.77
2018-02-06T07:13:24.031Z,62.10
2018-02-06T07:15:51.651Z,57.23
2018-02-06T07:18:19.215Z,60.60
2018-02-06T07:20:46.771Z,62.50
2018-02-06T07:23:25.903Z,58.53
2018-02-06T07:32:28.939Z,62.45
2018-02-06T07:34:56.800Z,72.57
2018-02-06T07:37:24.334Z,59.33
2018-02-06T07:39:52.387Z,59.83
2018-02-06T07:42:19.951Z,61.50
2018-02-06T07:44:47.492Z,56.88
2018-02-06T07:47:16.527Z,61.17
2018-02-06T07:49:44.847Z,53.47
2018-02-06T07:52:12.391Z,63.45
2018-02-06T07:54:39.951Z,59.50
2018-02-06T07:57:07.495Z,60.40
2018-02-06T07:59:35.027Z,61.00
2018-02-06T08:02:03.853Z,64.32
2018-02-06T08:04:31.409Z,57.60
2018-02-06T08:06:58.957Z,59.20
2018-02-06T08:09:26.528Z,60.67
2018-02-06T08:11:54.103Z,70.03
2018-02-06T08:14:21.654Z,63.00
2018-02-06T08:16:49.247Z,56.97
2018-02-06T08:19:16.798Z,55.37
2018-02-06T08:21:44.339Z,58.70
2018-02-06T08:24:12.335Z,57.60
2018-02-06T08:26:39.866Z,62.33
2018-02-06T08:29:07.407Z,53.07
2018-02-06T08:31:34.975Z,64.03
2018-02-06T08:34:03.030Z,61.22
2018-02-06T08:36:30.583Z,52.25
2018-02-06T08:38:58.919Z,51.73
2018-02-06T08:41:26.463Z,56.50
2018-02-06T08:43:54.003Z,59.80
2018-02-06T08:46:22.210Z,56.00
2018-02-06T08:48:49.755Z,58.57
2018-02-06T08:51:17.303Z,58.03
2018-02-06T08:53:44.871Z,56.87
2018-02-06T08:56:14.091Z,57.33
2018-02-06T08:58:41.728Z,56.43
2018-02-06T09:01:09.296Z,55.43
2018-02-06T09:03:36.834Z,57.40
2018-02-06T09:06:04.371Z,54.20
2018-02-06T09:08:33.159Z,54.63
2018-02-06T09:11:00.703Z,51.73
2018-02-06T09:13:28.236Z,56.77
2018-02-06T09:15:56.112Z,54.07
2018-02-06T09:18:23.651Z,50.67
2018-02-06T09:20:51.182Z,55.10
2018-02-06T09:23:18.742Z,54.00
2018-02-06T09:25:46.282Z,48.53
2018-02-06T09:28:26.191Z,51.75
2018-02-06T09:33:37.494Z,44.83
2018-02-06T09:36:05.467Z,47.27
2018-02-06T09:38:33.030Z,45.50
2018-02-06T09:41:00.643Z,49.27
2018-02-06T09:43:28.180Z,48.45
2018-02-06T09:45:56.479Z,51.63
2018-02-06T09:48:24.595Z,47.72
2018-02-06T09:50:52.137Z,51.23
2018-02-06T09:53:19.737Z,51.40
2018-02-06T09:55:47.294Z,47.70
2018-02-06T09:58:17.268Z,47.53
2018-02-06T10:00:45.069Z,51.47
2018-02-06T10:03:12.627Z,46.27
2018-02-06T10:05:40.167Z,50.80
2018-02-06T10:08:07.699Z,49.80
2018-02-06T10:10:35.283Z,46.87
2018-02-06T10:13:02.831Z,48.73
2018-02-06T10:15:31.152Z,45.93
2018-02-06T10:17:58.744Z,49.77
2018-02-06T10:20:27.044Z,50.67
2018-02-06T10:22:54.575Z,43.87
2018-02-06T10:25:22.930Z,48.70
2018-02-06T10:27:50.646Z,48.10
2018-02-06T10:30:18.184Z,45.83
2018-02-06T10:32:46.975Z,43.70
2018-02-06T10:35:16.504Z,46.40
2018-02-06T10:37:44.274Z,47.60
2018-02-06T10:40:11.958Z,43.20
2018-02-06T10:42:39.524Z,48.42
2018-02-06T10:45:07.119Z,44.13
2018-02-06T10:47:34.716Z,43.57
2018-02-06T10:50:02.275Z,39.47
2018-02-06T10:52:29.815Z,44.70
2018-02-06T10:54:57.927Z,48.03
2018-02-06T10:57:25.479Z,44.85
2018-02-06T10:59:53.011Z,41.40
2018-02-06T11:02:20.566Z,47.80
2018-02-06T11:04:48.092Z,41.93
2018-02-06T11:07:16.467Z,40.55
2018-02-06T11:09:44.022Z,50.50
2018-02-06T11:12:11.551Z,44.72
2018-02-06T11:14:39.102Z,49.33
2018-02-06T11:17:07.256Z,45.77
2018-02-06T11:19:34.816Z,49.00
2018-02-06T11:22:02.355Z,48.33
2018-02-06T11:24:29.922Z,43.17
2018-02-06T11:26:58.219Z,46.93
2018-02-06T11:29:25.751Z,46.00
2018-02-06T11:31:54.075Z,44.20
2018-02-06T11:34:21.603Z,45.77
2018-02-06T11:36:49.908Z,43.70
2018-02-06T11:39:18.080Z,45.13
2018-02-06T11:41:45.619Z,46.97
2018-02-06T11:44:15.335Z,49.78
2018-02-06T11:46:42.891Z,46.00
2018-02-06T11:49:10.431Z,47.00
2018-02-06T11:51:37.963Z,51.83
2018-02-06T11:54:05.532Z,48.72
2018-02-06T11:56:33.075Z,53.40
2018-02-06T11:59:00.603Z,45.93
2018-02-06T12:01:28.523Z,47.30
2018-02-06T12:03:56.052Z,49.07
2018-02-06T12:06:23.586Z,42.08
2018-02-06T12:08:51.143Z,48.80
2018-02-06T12:11:18.679Z,46.43
2018-02-06T12:13:46.991Z,52.53
2018-02-06T12:16:16.327Z,57.17
2018-02-06T12:18:43.856Z,45.73
2018-02-06T12:21:11.388Z,48.43
2018-02-06T12:23:39.302Z,46.50
2018-02-06T12:26:06.835Z,47.30
2018-02-06T12:28:34.362Z,49.73
2018-02-06T12:31:02.676Z,59.23
2018-02-06T12:33:30.259Z,51.33
2018-02-06T12:35:57.871Z,49.43
2018-02-06T12:38:26.234Z,45.78
2018-02-06T12:40:54.243Z,50.87
2018-02-06T12:43:21.787Z,49.17
2018-02-06T12:45:50.771Z,51.60
2018-02-06T12:48:19.109Z,47.70
2018-02-06T12:50:46.671Z,48.47
2018-02-06T12:53:25.892Z,53.28
2018-02-06T13:00:18.527Z,47.50
2018-02-06T13:02:46.099Z,45.93
2018-02-06T13:05:21.792Z,56.00
2018-02-06T13:07:49.347Z,49.43
2018-02-06T13:10:16.903Z,47.50
2018-02-06T13:12:44.993Z,43.60
2018-02-06T13:15:12.828Z,46.13
2018-02-06T13:17:41.131Z,48.87
2018-02-06T13:20:09.660Z,48.50
2018-02-06T13:22:37.351Z,49.70
2018-02-06T13:25:06.144Z,48.47
2018-02-06T13:27:33.767Z,46.63
2018-02-06T13:30:01.312Z,49.63
2018-02-06T13:32:29.648Z,46.73
2018-02-06T13:34:57.220Z,49.40
2018-02-06T13:37:24.778Z,42.13
2018-02-06T13:39:52.355Z,45.80
2018-02-06T13:42:20.671Z,43.83
2018-02-06T15:20:00.353Z,39.53
2018-02-06T15:22:28.664Z,35.97
2018-02-06T15:24:56.211Z,40.50
2018-02-06T15:27:23.771Z,32.33
2018-02-06T15:29:51.319Z,36.83
2018-02-06T15:32:18.938Z,35.77
2018-02-06T15:34:46.546Z,35.23
2018-02-06T15:37:16.272Z,37.75
2018-02-06T15:39:43.807Z,36.03
2018-02-06T15:42:11.959Z,37.00
2018-02-06T15:44:39.495Z,37.50
2018-02-06T15:47:07.046Z,39.27
2018-02-06T15:49:35.920Z,36.35
2018-02-06T15:52:03.463Z,41.67
2018-02-06T15:54:31.003Z,40.20
2018-02-06T15:56:58.556Z,40.17
2018-02-06T15:59:26.086Z,37.40
2018-02-06T16:01:53.617Z,39.93
2018-02-06T16:04:21.779Z,39.70
2018-02-06T16:06:49.314Z,42.97
2018-02-06T16:09:16.855Z,46.03
2018-02-06T16:11:44.428Z,41.07
2018-02-06T16:14:12.876Z,36.60
2018-02-06T16:16:40.416Z,44.35
2018-02-06T16:19:08.507Z,42.90
2018-02-06T16:21:36.282Z,45.73
2018-02-06T16:24:03.823Z,51.30
2018-02-06T16:26:31.469Z,44.92
2018-02-06T16:28:59.004Z,46.00
2018-02-06T16:31:28.085Z,47.62
2018-02-06T16:33:55.676Z,45.28
2018-02-06T16:36:23.227Z,47.30
2018-02-06T16:38:50.776Z,46.50
2018-02-06T16:41:18.339Z,46.93
2018-02-06T16:43:45.873Z,44.03
2018-02-06T16:46:15.433Z,48.08
2018-02-06T16:48:43.048Z,47.47
2018-02-06T16:51:10.611Z,46.60
2018-02-06T16:53:38.168Z,54.33
2018-02-06T16:56:06.550Z,52.50
2018-02-06T16:58:34.075Z,49.73
2018-02-06T17:01:01.638Z,57.78
2018-02-06T17:03:29.512Z,54.60
2018-02-06T17:05:57.046Z,51.70
2018-02-06T17:08:24.594Z,50.27
2018-02-06T17:10:52.659Z,52.10
2018-02-06T17:13:21.127Z,56.60
2018-02-06T17:15:48.634Z,57.03
2018-02-06T17:18:17.364Z,51.40
2018-02-06T17:20:45.667Z,57.10
2018-02-06T17:23:19.471Z,55.56
2018-02-06T17:25:47.019Z,52.83
2018-02-06T17:28:16.459Z,55.32
2018-02-06T17:30:44.220Z,51.50
2018-02-06T17:33:12.048Z,46.73
2018-02-06T17:35:40.347Z,56.97
2018-02-06T17:38:07.939Z,58.67
2018-02-06T17:40:35.513Z,49.97
2018-02-06T17:43:03.069Z,54.50
2018-02-06T17:45:30.660Z,60.20
2018-02-06T17:47:58.965Z,49.00
2018-02-06T17:50:27.250Z,51.05
2018-02-06T17:52:55.286Z,53.23
2018-02-06T17:55:23.597Z,57.07
2018-02-06T17:57:51.136Z,47.83
2018-02-06T18:00:19.471Z,50.92
2018-02-06T18:02:47.405Z,54.17
2018-02-06T18:05:17.342Z,52.80
2018-02-06T18:07:44.923Z,54.60
2018-02-06T18:10:12.463Z,57.25
2018-02-06T18:12:40.004Z,52.97
2018-02-06T18:15:07.664Z,55.58
2018-02-06T18:17:35.204Z,57.70
2018-02-06T18:20:02.793Z,61.07
2018-02-06T18:22:31.139Z,52.73
2018-02-06T18:24:58.908Z,56.53
2018-02-06T18:27:26.448Z,60.70
2018-02-06T18:29:54.781Z,57.27
2018-02-06T18:32:22.316Z,60.10
2018-02-06T18:34:49.856Z,60.13
2018-02-06T18:37:17.506Z,61.30
2018-02-06T18:39:45.017Z,63.43
2018-02-06T18:42:14.317Z,57.43
2018-02-06T18:44:41.885Z,69.23
2018-02-06T18:47:09.424Z,62.08
2018-02-06T18:49:37.019Z,59.53
2018-02-06T18:52:04.585Z,66.63
2018-02-06T18:54:32.126Z,59.85
2018-02-06T18:56:59.663Z,65.60
2018-02-06T18:59:27.247Z,71.10
2018-02-06T19:01:54.787Z,61.47
2018-02-06T19:04:23.140Z,112.55
2018-02-06T19:06:50.704Z,149.63
2018-02-06T19:09:19.188Z,94.10
2018-02-06T19:11:46.728Z,84.17
2018-02-06T19:14:16.319Z,82.62
2018-02-06T19:16:43.888Z,67.33
2018-02-06T19:19:11.428Z,69.85
2018-02-06T19:21:39.073Z,71.40
2018-02-06T19:24:06.613Z,56.70
2018-02-06T19:26:34.584Z,58.97
2018-02-06T19:29:02.156Z,68.93
2018-02-06T19:31:29.704Z,67.03
2018-02-06T19:33:57.299Z,80.87
2018-02-06T19:36:24.934Z,65.40
2018-02-06T19:38:52.491Z,68.03
2018-02-06T19:41:20.038Z,71.55
2018-02-06T19:43:48.044Z,65.07
2018-02-06T19:46:17.223Z,57.87
2018-02-06T19:48:44.760Z,68.10
2018-02-06T19:51:12.328Z,58.80
2018-02-06T19:53:39.947Z,61.37
2018-02-06T19:56:07.527Z,55.83
2018-02-06T19:58:36.060Z,66.57
2018-02-06T20:01:03.675Z,67.00
2018-02-06T20:03:32.035Z,63.00
2018-02-06T20:06:00.696Z,56.40
2018-02-06T20:08:28.298Z,71.37
2018-02-06T20:10:55.851Z,59.90
2018-02-06T20:13:24.257Z,67.60
2018-02-06T20:15:51.812Z,66.47
2018-02-06T20:18:19.617Z,68.63
2018-02-06T20:20:47.244Z,62.97
2018-02-06T20:23:17.226Z,64.43
2018-02-06T20:25:45.537Z,71.00
2018-02-06T20:28:15.479Z,58.17
2018-02-06T20:30:43.079Z,65.77
2018-02-06T20:33:11.393Z,73.50
2018-02-06T20:35:38.960Z,65.67
2018-02-06T20:38:06.508Z,67.85
2018-02-06T20:40:34.060Z,73.97
2018-02-06T20:43:01.628Z,66.60
2018-02-06T20:45:29.221Z,63.63
2018-02-06T20:47:56.777Z,68.03
2018-02-06T20:50:24.855Z,58.27
2018-02-06T20:52:52.396Z,66.57
2018-02-06T20:55:19.936Z,64.50
2018-02-06T20:57:47.514Z,64.68
2018-02-06T21:00:17.424Z,60.52
2018-02-06T21:02:45.028Z,61.10
2018-02-06T21:05:12.646Z,63.90
2018-02-06T21:07:40.184Z,70.10
2018-02-06T21:10:07.798Z,71.83
2018-02-06T21:12:35.859Z,66.70
2018-02-06T21:15:03.404Z,71.47
2018-02-06T21:17:30.957Z,70.57
2018-02-06T21:19:58.602Z,76.30
2018-02-06T21:22:26.907Z,66.95
2018-02-06T21:24:54.490Z,69.90
2018-02-06T21:27:22.060Z,69.90
2018-02-06T21:29:50.672Z,66.80
2018-02-06T21:32:18.987Z,75.80
2018-02-06T21:34:46.607Z,85.70
2018-02-06T21:37:16.356Z,75.87
2018-02-06T21:39:43.950Z,74.87
2018-02-06T21:42:11.574Z,71.93
2018-02-06T21:44:39.114Z,72.93
2018-02-06T21:47:06.664Z,72.47
2018-02-06T21:49:36.499Z,73.93
2018-02-06T21:52:04.040Z,71.17
2018-02-06T21:54:31.592Z,74.57
2018-02-06T21:56:59.997Z,74.57
2018-02-06T21:59:27.569Z,77.10
2018-02-06T22:01:55.135Z,72.93
2018-02-06T22:04:22.699Z,70.30
2018-02-06T22:06:50.244Z,73.37
2018-02-06T22:09:17.839Z,68.00
2018-02-06T22:11:45.778Z,72.50
2018-02-06T22:14:15.375Z,73.78
2018-02-06T22:16:42.911Z,72.23
2018-02-06T22:19:11.313Z,74.20
2018-02-06T22:21:38.847Z,68.73
2018-02-06T22:24:07.160Z,67.28
2018-02-06T22:26:34.720Z,76.77
2018-02-06T22:29:02.259Z,72.73
2018-02-06T22:31:34.360Z,76.55
2018-02-06T22:34:01.952Z,77.97
2018-02-06T22:36:29.501Z,68.40
2018-02-06T22:38:59.195Z,80.77
2018-02-06T22:41:26.999Z,72.32
2018-02-06T22:43:54.554Z,71.25
2018-02-06T22:46:22.919Z,76.30
2018-02-06T22:48:50.490Z,68.65
2018-02-06T22:51:18.051Z,76.83
2018-02-06T22:53:45.593Z,72.12
2018-02-06T22:56:15.400Z,77.25
2018-02-06T22:58:42.940Z,88.40
2018-02-06T23:01:10.815Z,78.20
2018-02-06T23:03:38.432Z,84.03
2018-02-06T23:06:05.971Z,85.20
2018-02-06T23:08:33.520Z,80.57
2018-02-06T23:11:01.821Z,75.27
2018-02-06T23:13:30.156Z,85.80
2018-02-06T23:15:57.702Z,89.90
2018-02-06T23:18:25.279Z,76.87
2018-02-06T23:20:52.838Z,82.63
2018-02-06T23:23:20.375Z,91.93
2018-02-06T23:25:48.371Z,83.00
2018-02-06T23:28:17.443Z,101.15
2018-02-06T23:30:45.006Z,96.67
2018-02-06T23:33:14.419Z,90.25
2018-02-06T23:35:41.968Z,81.00
2018-02-06T23:38:09.519Z,85.47
2018-02-06T23:40:37.419Z,97.97
2018-02-06T23:43:04.955Z,87.70
2018-02-06T23:45:32.496Z,84.60
2018-02-06T23:48:00.250Z,93.13
2018-02-06T23:50:27.791Z,78.13
2018-02-06T23:52:55.331Z,94.27
2018-02-06T23:55:22.896Z,83.93
2018-02-06T23:57:50.436Z,91.10
